Time;durP1;ratioP1;P1;durP2;ratioP2;P2;SDS_P1;SDS_P2;PMS_P1;PMS_P2;Temp;Humidity;BMP_temperature;BMP_pressure;BME280_temperature;BME280_humidity;BME280_pressure;Samples;Min_cycle;Max_cycle;Signal;HPM_P1;HPM_P2
2023/06/01 00:02:06;;;;;;;1.67;1.02;;;18.40;77.60;;;;;;5017926;28;20033;-65
2023/06/01 00:04:32;;;;;;;2.45;0.90;;;18.30;77.80;;;;;;5027986;28;20034;-65
2023/06/01 00:07:01;;;;;;;1.13;0.80;;;18.30;78.20;;;;;;5016823;28;20108;-66
2023/06/01 00:09:27;;;;;;;1.25;0.80;;;18.30;78.10;;;;;;5029023;28;20060;-66
2023/06/01 00:11:53;;;;;;;2.10;0.77;;;18.20;78.30;;;;;;4998314;28;20118;-66
2023/06/01 00:14:18;;;;;;;1.02;0.60;;;18.00;79.10;;;;;;5012184;28;20568;-66
2023/06/01 00:16:45;;;;;;;3.20;1.15;;;18.00;79.40;;;;;;5014744;28;20024;-66
2023/06/01 00:19:11;;;;;;;1.90;0.95;;;18.00;79.30;;;;;;5029832;28;20033;-66
2023/06/01 00:21:37;;;;;;;3.60;1.25;;;18.10;79.20;;;;;;5020792;28;20030;-65
2023/06/01 00:24:03;;;;;;;3.00;0.98;;;18.10;79.40;;;;;;5028868;28;20135;-65
2023/06/01 00:26:32;;;;;;;1.73;0.88;;;18.10;79.80;;;;;;5015150;28;20053;-66
2023/06/01 00:28:59;;;;;;;5.38;1.95;;;18.10;80.30;;;;;;5028108;28;20048;-66
2023/06/01 00:31:26;;;;;;;1.98;0.73;;;18.10;80.70;;;;;;5022223;28;20123;-65
2023/06/01 00:33:52;;;;;;;1.67;0.93;;;18.10;80.80;;;;;;5026932;28;20026;-65
2023/06/01 00:36:18;;;;;;;1.60;0.80;;;18.10;81.20;;;;;;5005086;28;20029;-65
2023/06/01 00:38:44;;;;;;;1.98;1.15;;;18.00;81.70;;;;;;5025863;28;20064;-65
2023/06/01 00:41:11;;;;;;;3.75;1.15;;;17.90;82.10;;;;;;5017759;28;20033;-66
2023/06/01 00:43:36;;;;;;;1.73;0.73;;;17.90;82.30;;;;;;5024858;28;20025;-66
2023/06/01 00:46:02;;;;;;;2.10;1.25;;;17.80;83.00;;;;;;5006827;28;20140;-65
2023/06/01 00:48:29;;;;;;;2.60;1.23;;;17.60;83.80;;;;;;5006984;28;20031;-65
2023/06/01 00:50:56;;;;;;;1.67;0.82;;;17.60;84.60;;;;;;5023872;28;20037;-65
2023/06/01 00:53:24;;;;;;;5.07;1.20;;;17.60;85.10;;;;;;5007388;28;20025;-65
2023/06/01 00:55:50;;;;;;;2.75;1.10;;;17.50;85.90;;;;;;5006824;28;20444;-66
2023/06/01 00:58:16;;;;;;;5.88;1.00;;;17.40;86.50;;;;;;5006791;28;20037;-66
2023/06/01 01:00:41;;;;;;;2.67;0.70;;;17.30;87.40;;;;;;5017325;28;20480;-66
2023/06/01 01:03:08;;;;;;;2.30;0.88;;;17.20;87.80;;;;;;5024185;28;20037;-65
2023/06/01 01:05:37;;;;;;;1.98;1.20;;;17.10;88.60;;;;;;5011295;28;20033;-65
2023/06/01 01:08:27;;;;;;;2.40;1.23;;;17.10;89.10;;;;;;4991188;28;20536;-66
2023/06/01 01:11:19;;;;;;;2.08;0.95;;;17.10;89.60;;;;;;5005640;28;20045;-66
2023/06/01 01:13:55;;;;;;;3.42;1.30;;;17.00;90.10;;;;;;5001517;28;20137;-66
2023/06/01 01:16:34;;;;;;;2.60;1.00;;;16.90;90.60;;;;;;5005548;28;20034;-66
2023/06/01 01:19:35;;;;;;;2.13;0.82;;;16.80;91.20;;;;;;5010160;28;20488;-66
2023/06/01 01:22:20;;;;;;;;;;;16.70;91.60;;;;;;5016475;28;20038;-66
2023/06/01 01:25:43;;;;;;;3.58;1.30;;;16.70;92.00;;;;;;5005394;28;19996;-66
2023/06/01 01:28:46;;;;;;;5.25;1.40;;;16.60;92.40;;;;;;5015733;28;20049;-66
2023/06/01 01:31:18;;;;;;;4.55;0.93;;;16.60;92.90;;;;;;5012922;28;20420;-67
2023/06/01 01:33:47;;;;;;;4.57;1.10;;;16.60;93.20;;;;;;5008021;28;20091;-66
2023/06/01 01:36:15;;;;;;;3.72;1.20;;;16.50;93.70;;;;;;5005745;28;20029;-66
2023/06/01 01:38:41;;;;;;;6.65;0.90;;;16.50;93.90;;;;;;5024421;28;20398;-67
2023/06/01 01:41:07;;;;;;;11.35;0.95;;;16.50;94.20;;;;;;5006266;28;20033;-67
2023/06/01 01:43:33;;;;;;;3.70;0.98;;;16.40;95.20;;;;;;5020945;28;20366;-66
2023/06/01 01:46:17;;;;;;;4.45;2.03;;;16.40;95.00;;;;;;5000508;28;20489;-66
2023/06/01 01:48:58;;;;;;;5.65;1.50;;;16.40;95.40;;;;;;5017417;28;20433;-67
2023/06/01 01:51:40;;;;;;;2.00;1.02;;;16.30;95.60;;;;;;5021025;28;20060;-66
2023/06/01 01:54:09;;;;;;;7.50;1.40;;;16.30;95.90;;;;;;5011269;28;20049;-66
2023/06/01 01:56:36;;;;;;;1.58;1.17;;;16.20;96.40;;;;;;4986156;28;20084;-65
2023/06/01 01:59:04;;;;;;;2.03;1.33;;;16.20;96.40;;;;;;5009874;28;20025;-66
2023/06/01 02:01:31;;;;;;;3.47;1.23;;;16.20;96.60;;;;;;5003326;28;20033;-66
2023/06/01 02:04:07;;;;;;;2.00;1.17;;;16.10;96.90;;;;;;5009156;28;20060;-66
2023/06/01 02:06:33;;;;;;;3.55;1.42;;;16.10;97.10;;;;;;5001998;28;20040;-66
2023/06/01 02:08:59;;;;;;;3.35;1.63;;;16.10;97.30;;;;;;5008944;28;20444;-66
2023/06/01 02:11:26;;;;;;;3.78;1.25;;;16.00;97.80;;;;;;4980703;28;20087;-66
2023/06/01 02:13:51;;;;;;;5.65;1.00;;;15.90;97.80;;;;;;5025576;28;20026;-65
2023/06/01 02:16:18;;;;;;;2.03;0.80;;;15.90;98.30;;;;;;5014944;28;20041;-66
2023/06/01 02:18:45;;;;;;;10.40;1.77;;;15.90;98.50;;;;;;5024474;28;20041;-66
2023/06/01 02:21:13;;;;;;;2.75;1.17;;;15.80;98.90;;;;;;5005408;28;20039;-66
2023/06/01 02:23:39;;;;;;;2.75;0.90;;;15.80;98.90;;;;;;5023664;28;20065;-65
2023/06/01 02:26:07;;;;;;;3.03;1.40;;;15.80;99.00;;;;;;5015993;28;20072;-66
2023/06/01 02:28:32;;;;;;;4.80;1.50;;;15.80;99.10;;;;;;5022944;28;20033;-66
2023/06/01 02:30:58;;;;;;;2.72;1.35;;;15.80;99.40;;;;;;5022010;28;20392;-66
2023/06/01 02:33:26;;;;;;;4.03;1.20;;;15.70;99.60;;;;;;5004936;28;20429;-66
2023/06/01 02:35:52;;;;;;;5.50;1.88;;;15.70;99.90;;;;;;5015420;28;20547;-65
2023/06/01 02:38:18;;;;;;;5.57;1.20;;;15.60;99.90;;;;;;5013958;23;20046;-67
2023/06/01 02:40:43;;;;;;;3.33;1.33;;;15.50;99.90;;;;;;5016893;28;20398;-67
2023/06/01 02:43:09;;;;;;;7.72;0.98;;;15.40;99.90;;;;;;5010051;28;20037;-66
2023/06/01 02:45:35;;;;;;;2.55;0.93;;;15.30;99.90;;;;;;5004705;28;20037;-66
2023/06/01 02:48:00;;;;;;;3.33;1.20;;;15.20;99.90;;;;;;5028498;28;20392;-67
2023/06/01 02:50:26;;;;;;;3.50;0.85;;;15.20;99.90;;;;;;5018658;28;20034;-66
2023/06/01 02:52:52;;;;;;;3.03;0.90;;;15.20;99.90;;;;;;5003217;28;20033;-66
2023/06/01 02:55:18;;;;;;;2.25;1.13;;;15.10;99.90;;;;;;5017987;28;20393;-67
2023/06/01 02:57:44;;;;;;;3.58;0.88;;;15.10;99.90;;;;;;5030895;28;20030;-66
2023/06/01 03:00:15;;;;;;;4.10;1.15;;;15.10;99.90;;;;;;5001182;28;20480;-66
2023/06/01 03:02:45;;;;;;;1.83;1.10;;;15.00;99.90;;;;;;4994606;28;20109;-67
2023/06/01 03:05:14;;;;;;;5.45;2.00;;;15.00;99.90;;;;;;4992323;28;20769;-67
2023/06/01 03:07:41;;;;;;;2.33;1.10;;;15.00;99.90;;;;;;4993394;28;20045;-66
2023/06/01 03:10:08;;;;;;;2.63;1.13;;;15.00;99.90;;;;;;4999913;28;20116;-67
2023/06/01 03:12:35;;;;;;;1.77;1.00;;;15.00;99.90;;;;;;4994976;28;20045;-66
2023/06/01 03:15:01;;;;;;;1.40;0.95;;;15.00;99.90;;;;;;5015686;28;20101;-66
2023/06/01 03:17:26;;;;;;;3.05;1.45;;;14.90;99.90;;;;;;5029000;28;20176;-67
2023/06/01 03:19:52;;;;;;;3.72;1.50;;;14.80;99.90;;;;;;5024129;28;20033;-66
2023/06/01 03:22:18;;;;;;;3.10;1.23;;;14.90;99.90;;;;;;4995565;28;20041;-66
2023/06/01 03:24:44;;;;;;;2.50;0.93;;;14.90;99.90;;;;;;5015712;28;20024;-66
2023/06/01 03:27:13;;;;;;;4.03;1.20;;;14.90;99.90;;;;;;5026703;28;20029;-66
2023/06/01 03:29:38;;;;;;;2.53;1.45;;;14.80;99.90;;;;;;5006096;28;20044;-66
2023/06/01 03:32:05;;;;;;;2.70;0.95;;;14.80;99.90;;;;;;5008320;28;20038;-66
2023/06/01 03:34:32;;;;;;;2.60;0.93;;;14.80;99.90;;;;;;5006505;28;20042;-66
2023/06/01 03:36:58;;;;;;;5.05;1.50;;;14.80;99.90;;;;;;5016539;28;20096;-66
2023/06/01 03:39:24;;;;;;;2.78;1.70;;;14.80;99.90;;;;;;4999921;28;20021;-66
2023/06/01 03:41:50;;;;;;;1.55;0.93;;;14.80;99.90;;;;;;5024055;28;20049;-66
2023/06/01 03:44:15;;;;;;;1.42;0.70;;;14.70;99.90;;;;;;5008532;28;20366;-66
2023/06/01 03:46:41;;;;;;;2.03;1.25;;;14.80;99.90;;;;;;5022284;28;20481;-66
2023/06/01 03:49:07;;;;;;;3.13;1.33;;;14.80;99.90;;;;;;5009241;28;20041;-66
2023/06/01 03:51:33;;;;;;;1.63;0.98;;;14.80;99.90;;;;;;5021731;28;20567;-66
2023/06/01 03:53:58;;;;;;;1.80;0.93;;;14.80;99.90;;;;;;5026193;28;20033;-66
2023/06/01 03:56:24;;;;;;;2.33;1.20;;;14.80;99.90;;;;;;5004124;28;20036;-66
2023/06/01 03:58:51;;;;;;;1.67;0.90;;;14.80;99.90;;;;;;5024742;28;20029;-66
2023/06/01 04:01:19;;;;;;;3.30;1.10;;;14.90;99.90;;;;;;5021718;28;20064;-66
2023/06/01 04:03:48;;;;;;;1.55;0.90;;;14.90;99.90;;;;;;5009582;28;20496;-66
2023/06/01 04:06:17;;;;;;;2.15;1.05;;;14.90;99.90;;;;;;4987864;28;20033;-66
2023/06/01 04:08:48;;;;;;;6.53;2.25;;;15.00;99.90;;;;;;5024710;28;20091;-66
2023/06/01 04:11:16;;;;;;;2.72;1.52;;;15.00;99.90;;;;;;5022794;28;20474;-66
2023/06/01 04:13:43;;;;;;;1.30;0.88;;;15.00;99.90;;;;;;5012572;28;20034;-65
2023/06/01 04:16:12;;;;;;;2.70;1.10;;;15.00;99.90;;;;;;5007337;28;20060;-66
2023/06/01 04:18:38;;;;;;;2.75;1.60;;;14.90;99.90;;;;;;5012284;28;20443;-66
2023/06/01 04:21:04;;;;;;;5.45;1.00;;;15.00;99.90;;;;;;5025112;28;20033;-66
2023/06/01 04:23:30;;;;;;;2.67;1.25;;;15.00;99.90;;;;;;5012441;28;20029;-66
2023/06/01 04:25:59;;;;;;;2.47;1.20;;;15.00;99.90;;;;;;5007212;28;20034;-66
2023/06/01 04:28:29;;;;;;;5.15;0.95;;;15.00;99.90;;;;;;5028118;28;20030;-66
2023/06/01 04:30:56;;;;;;;2.87;1.60;;;15.10;99.90;;;;;;5024915;28;20501;-66
2023/06/01 04:33:24;;;;;;;5.45;2.10;;;15.10;99.90;;;;;;5027866;28;20022;-66
2023/06/01 04:35:54;;;;;;;4.25;1.67;;;15.20;99.90;;;;;;5024503;28;20037;-65
2023/06/01 04:38:21;;;;;;;3.47;1.58;;;15.20;99.90;;;;;;4995081;28;20065;-65
2023/06/01 04:40:47;;;;;;;3.75;1.30;;;15.20;99.90;;;;;;5024627;28;20025;-66
2023/06/01 04:43:13;;;;;;;1.48;0.82;;;15.20;99.90;;;;;;5010022;28;20034;-66
2023/06/01 04:45:39;;;;;;;1.80;1.02;;;15.30;99.90;;;;;;4999784;28;20409;-60
2023/06/01 04:48:08;;;;;;;2.40;1.17;;;15.30;99.90;;;;;;4991522;28;20568;-60
2023/06/01 04:50:35;;;;;;;3.30;0.90;;;15.40;99.90;;;;;;5012370;28;20030;-60
2023/06/01 04:53:01;;;;;;;2.05;0.90;;;15.70;99.90;;;;;;5009499;28;20441;-60
2023/06/01 04:55:26;;;;;;;1.50;0.80;;;15.80;99.90;;;;;;5015795;28;20064;-60
2023/06/01 04:57:53;;;;;;;3.92;0.90;;;15.90;99.90;;;;;;5031655;28;20025;-60
2023/06/01 05:00:19;;;;;;;7.78;1.20;;;15.90;99.90;;;;;;5020099;28;20026;-61
2023/06/01 05:02:47;;;;;;;7.13;2.65;;;16.00;99.90;;;;;;5022520;28;20112;-61
2023/06/01 05:05:15;;;;;;;2.47;0.90;;;16.10;99.90;;;;;;4982336;28;20054;-61
2023/06/01 05:07:43;;;;;;;5.05;1.13;;;16.20;99.90;;;;;;5006670;28;20026;-61
2023/06/01 05:10:12;;;;;;;1.77;0.98;;;16.20;99.90;;;;;;5002487;28;20542;-60
2023/06/01 05:12:38;;;;;;;2.58;1.23;;;16.30;99.90;;;;;;5000571;28;20391;-60
2023/06/01 05:15:09;;;;;;;6.13;1.25;;;16.30;99.90;;;;;;5005350;28;20026;-61
2023/06/01 05:17:34;;;;;;;;;;;16.40;99.90;;;;;;5017779;28;20508;-60
2023/06/01 05:20:00;;;;;;;3.45;1.15;;;16.50;99.90;;;;;;5018645;28;19914;-62
2023/06/01 05:22:26;;;;;;;3.45;1.30;;;16.50;99.90;;;;;;4970791;28;20092;-62
2023/06/01 05:24:52;;;;;;;4.32;1.08;;;16.50;99.90;;;;;;4995009;28;20553;-61
2023/06/01 05:27:18;;;;;;;4.05;1.20;;;16.50;99.90;;;;;;5011325;28;20030;-61
2023/06/01 05:29:44;;;;;;;3.10;0.88;;;16.60;99.90;;;;;;5031878;28;20084;-61
2023/06/01 05:32:10;;;;;;;3.20;1.00;;;16.70;99.90;;;;;;5001377;28;20044;-60
2023/06/01 05:34:36;;;;;;;1.90;1.13;;;16.80;99.90;;;;;;5011611;28;20061;-61
2023/06/01 05:37:02;;;;;;;2.42;1.25;;;16.80;99.90;;;;;;5010407;28;20057;-61
2023/06/01 05:39:28;;;;;;;4.05;1.13;;;16.90;99.90;;;;;;4993682;28;20064;-61
2023/06/01 05:41:58;;;;;;;2.17;0.90;;;17.00;99.90;;;;;;5011261;28;20575;-61
2023/06/01 05:44:25;;;;;;;1.65;1.02;;;17.10;99.90;;;;;;5011567;28;20478;-61
2023/06/01 05:46:52;;;;;;;1.27;0.75;;;17.10;99.90;;;;;;5017279;28;20501;-61
2023/06/01 05:49:19;;;;;;;1.75;1.05;;;17.20;99.90;;;;;;5013763;28;20070;-61
2023/06/01 05:51:46;;;;;;;5.35;2.10;;;17.30;99.90;;;;;;5018304;28;20022;-61
2023/06/01 05:54:12;;;;;;;2.50;1.48;;;17.70;99.90;;;;;;5027891;28;20099;-58
2023/06/01 05:56:40;;;;;;;3.17;1.42;;;18.00;99.90;;;;;;5024367;28;20030;-60
2023/06/01 05:59:06;;;;;;;6.00;1.40;;;18.40;99.80;;;;;;5025992;28;20035;-60
2023/06/01 06:01:32;;;;;;;3.25;1.33;;;18.40;99.40;;;;;;4991340;28;20034;-60
2023/06/01 06:03:59;;;;;;;3.35;1.27;;;18.40;99.20;;;;;;4975474;28;20233;-60
2023/06/01 06:06:26;;;;;;;7.53;1.42;;;18.40;99.20;;;;;;5008492;28;20452;-60
2023/06/01 06:08:52;;;;;;;1.80;0.98;;;18.50;98.90;;;;;;4993784;28;20547;-62
2023/06/01 06:11:18;;;;;;;1.75;1.17;;;18.60;98.90;;;;;;5010050;28;20033;-62
2023/06/01 06:13:44;;;;;;;3.13;1.10;;;18.60;98.30;;;;;;4979135;28;20029;-62
2023/06/01 06:16:10;;;;;;;3.70;1.40;;;18.70;98.20;;;;;;5003282;28;20501;-63
2023/06/01 06:18:36;;;;;;;1.35;0.80;;;18.60;98.40;;;;;;5017316;28;20071;-62
2023/06/01 06:21:02;;;;;;;1.40;0.93;;;18.60;98.10;;;;;;5016598;28;20060;-62
2023/06/01 06:23:30;;;;;;;1.63;0.88;;;18.70;97.90;;;;;;5014035;28;20033;-64
2023/06/01 06:25:55;;;;;;;1.70;0.80;;;18.70;97.80;;;;;;5015080;28;20038;-63
2023/06/01 06:28:21;;;;;;;2.20;0.93;;;18.80;97.70;;;;;;5020960;28;20432;-62
2023/06/01 06:30:47;;;;;;;3.67;1.40;;;18.90;97.80;;;;;;5010192;28;20037;-61
2023/06/01 06:33:13;;;;;;;2.95;1.38;;;19.00;97.70;;;;;;5021884;28;20037;-60
2023/06/01 06:35:41;;;;;;;2.08;1.00;;;19.10;97.70;;;;;;5025978;28;20025;-60
2023/06/01 06:38:07;;;;;;;8.70;1.45;;;19.20;97.30;;;;;;5020517;28;20029;-62
2023/06/01 06:40:32;;;;;;;2.47;1.30;;;19.30;97.10;;;;;;5027936;28;20037;-62
2023/06/01 06:42:58;;;;;;;3.90;1.17;;;19.40;96.70;;;;;;5021720;28;20079;-61
2023/06/01 06:45:24;;;;;;;5.30;1.67;;;19.40;96.30;;;;;;5027833;28;20034;-61
2023/06/01 06:47:49;;;;;;;5.32;2.03;;;19.50;96.30;;;;;;5019249;28;20470;-61
2023/06/01 06:50:15;;;;;;;2.28;1.48;;;19.40;96.00;;;;;;5009841;28;20536;-61
2023/06/01 06:52:44;;;;;;;2.70;1.25;;;19.50;96.10;;;;;;5016168;28;20075;-63
2023/06/01 06:55:10;;;;;;;1.83;0.95;;;19.60;96.00;;;;;;5008904;28;20499;-61
2023/06/01 06:57:36;;;;;;;3.72;1.20;;;19.50;96.10;;;;;;5014530;28;20110;-61
2023/06/01 07:00:03;;;;;;;3.65;1.13;;;19.60;95.50;;;;;;5009724;28;20029;-61
2023/06/01 07:02:31;;;;;;;3.00;1.17;;;19.70;94.80;;;;;;5002337;28;20609;-61
2023/06/01 07:04:56;;;;;;;3.40;1.05;;;19.90;94.40;;;;;;5029720;28;20071;-61
2023/06/01 07:07:22;;;;;;;3.70;1.50;;;19.90;94.60;;;;;;5019125;28;20042;-61
2023/06/01 07:09:48;;;;;;;5.00;1.10;;;19.90;94.70;;;;;;5030135;28;20180;-61
2023/06/01 07:12:14;;;;;;;3.40;1.02;;;20.00;94.30;;;;;;5019507;28;20535;-61
2023/06/01 07:14:40;;;;;;;2.33;1.13;;;20.20;93.70;;;;;;5029633;28;20045;-61
2023/06/01 07:17:06;;;;;;;3.05;1.20;;;20.40;93.70;;;;;;5021822;28;20045;-61
2023/06/01 07:19:32;;;;;;;1.52;0.90;;;20.50;93.30;;;;;;5010376;28;20393;-61
2023/06/01 07:22:01;;;;;;;2.75;1.13;;;20.60;92.90;;;;;;5017463;28;20045;-56
2023/06/01 07:24:27;;;;;;;3.50;1.35;;;20.70;93.00;;;;;;5028263;28;20038;-61
2023/06/01 07:26:55;;;;;;;2.25;1.17;;;20.70;92.90;;;;;;5021197;28;20144;-61
2023/06/01 07:29:22;;;;;;;4.47;0.90;;;20.80;92.70;;;;;;5027569;28;20044;-64
2023/06/01 07:31:51;;;;;;;16.33;3.10;;;20.90;92.60;;;;;;5022330;28;20053;-64
2023/06/01 07:34:18;;;;;;;6.13;1.60;;;20.70;92.70;;;;;;5027231;28;20029;-63
2023/06/01 07:36:45;;;;;;;3.72;1.30;;;20.70;92.70;;;;;;5022375;28;20034;-63
2023/06/01 07:39:11;;;;;;;3.55;1.40;;;20.70;92.70;;;;;;5008710;28;20057;-63
2023/06/01 07:41:39;;;;;;;2.63;1.25;;;20.80;92.80;;;;;;5023713;28;20046;-63
2023/06/01 07:44:07;;;;;;;3.10;1.08;;;20.90;92.30;;;;;;5025347;28;20037;-63
2023/06/01 07:46:33;;;;;;;3.03;1.33;;;21.00;92.40;;;;;;5023079;28;20033;-62
2023/06/01 07:48:59;;;;;;;3.67;1.25;;;21.00;92.40;;;;;;5018520;28;20084;-62
2023/06/01 07:51:24;;;;;;;3.22;1.33;;;21.00;92.30;;;;;;5020693;28;20040;-63
2023/06/01 07:53:50;;;;;;;2.70;1.40;;;21.10;92.50;;;;;;5009208;28;20112;-62
2023/06/01 07:56:16;;;;;;;1.90;1.00;;;21.20;92.20;;;;;;5030105;28;20106;-63
2023/06/01 07:58:44;;;;;;;6.35;1.73;;;21.30;91.90;;;;;;5008150;28;20296;-62
2023/06/01 08:01:10;;;;;;;2.47;1.23;;;21.40;91.70;;;;;;5024697;28;20073;-62
2023/06/01 08:03:36;;;;;;;2.40;1.50;;;21.40;91.80;;;;;;5016968;28;20083;-62
2023/06/01 08:06:04;;;;;;;1.88;1.10;;;21.60;92.00;;;;;;5030162;28;20548;-63
2023/06/01 08:08:31;;;;;;;1.60;0.90;;;21.70;91.70;;;;;;5007426;28;20037;-63
2023/06/01 08:10:57;;;;;;;3.83;1.10;;;21.70;91.30;;;;;;5030763;28;20042;-63
2023/06/01 08:13:25;;;;;;;1.65;0.90;;;21.90;91.90;;;;;;5024856;28;20436;-62
2023/06/01 08:15:52;;;;;;;2.25;1.30;;;22.00;91.70;;;;;;5010467;28;20061;-62
2023/06/01 08:18:23;;;;;;;3.65;1.13;;;22.10;91.10;;;;;;5021146;28;20037;-63
2023/06/01 08:20:49;;;;;;;2.80;1.27;;;22.00;91.30;;;;;;5000973;28;20029;-62
2023/06/01 08:23:22;;;;;;;2.25;1.10;;;22.10;91.40;;;;;;5024287;28;20029;-63
2023/06/01 08:25:48;;;;;;;1.90;0.90;;;22.30;91.10;;;;;;5012961;28;20033;-64
2023/06/01 08:28:14;;;;;;;6.72;1.40;;;22.40;90.60;;;;;;5024211;28;20033;-64
2023/06/01 08:30:40;;;;;;;2.72;1.17;;;22.60;90.70;;;;;;5030486;28;20029;-64
2023/06/01 08:33:06;;;;;;;3.03;1.30;;;22.60;90.50;;;;;;5024306;28;20064;-64
2023/06/01 08:35:33;;;;;;;2.53;1.20;;;22.80;90.50;;;;;;5029866;28;20052;-64
2023/06/01 08:38:00;;;;;;;2.70;1.15;;;22.80;90.30;;;;;;5024039;28;20025;-64
2023/06/01 08:40:27;;;;;;;2.35;0.95;;;23.00;90.20;;;;;;5030129;28;20041;-64
2023/06/01 08:43:09;;;;;;;7.50;2.33;;;23.20;89.30;;;;;;5006887;28;20036;-63
2023/06/01 08:45:36;;;;;;;3.40;1.40;;;23.20;89.00;;;;;;5012790;28;20044;-63
2023/06/01 08:48:04;;;;;;;2.95;1.20;;;23.30;89.20;;;;;;4999750;28;20399;-63
2023/06/01 08:50:31;;;;;;;1.88;1.13;;;23.20;88.80;;;;;;4981646;28;20042;-63
2023/06/01 08:52:59;;;;;;;2.92;1.35;;;23.30;87.90;;;;;;5001657;28;20041;-63
2023/06/01 08:55:25;;;;;;;2.40;1.05;;;23.40;88.10;;;;;;5012061;28;20068;-63
2023/06/01 08:57:56;;;;;;;3.55;1.60;;;23.50;86.40;;;;;;5005051;28;20064;-63
2023/06/01 09:00:23;;;;;;;4.05;1.30;;;23.50;86.80;;;;;;5029888;28;20727;-63
2023/06/01 09:02:49;;;;;;;3.13;1.30;;;23.40;86.50;;;;;;5006540;28;20111;-63
2023/06/01 09:05:17;;;;;;;3.17;1.38;;;23.60;86.40;;;;;;5029483;28;20059;-63
2023/06/01 09:07:43;;;;;;;2.92;1.17;;;23.80;84.30;;;;;;5023812;28;20421;-63
2023/06/01 09:10:09;;;;;;;3.28;1.83;;;23.90;83.90;;;;;;5012242;28;20033;-63
2023/06/01 09:12:40;;;;;;;2.60;1.00;;;24.10;83.30;;;;;;5023492;28;20022;-62
2023/06/01 09:15:16;;;;;;;3.28;1.33;;;24.20;83.10;;;;;;5030108;28;20025;-63
2023/06/01 09:17:48;;;;;;;1.95;1.17;;;24.40;81.90;;;;;;5020401;28;20052;-63
2023/06/01 09:20:25;;;;;;;5.80;1.30;;;24.50;81.00;;;;;;4994320;28;20075;-63
2023/06/01 09:22:53;;;;;;;3.53;1.50;;;24.50;81.70;;;;;;5023527;28;20029;-63
2023/06/01 09:25:28;;;;;;;2.28;1.15;;;24.50;80.50;;;;;;5029276;28;20420;-63
2023/06/01 09:27:56;;;;;;;2.78;1.35;;;24.70;79.30;;;;;;5005885;28;20025;-63
2023/06/01 09:30:25;;;;;;;1.88;1.15;;;24.80;78.10;;;;;;5012014;28;20408;-63
2023/06/01 09:33:10;;;;;;;5.80;0.85;;;24.60;79.30;;;;;;5023265;28;20037;-63
2023/06/01 09:35:47;;;;;;;1.45;0.90;;;24.70;78.60;;;;;;5029290;28;20053;-63
2023/06/01 09:38:25;;;;;;;0.82;0.68;;;24.90;77.50;;;;;;5005592;28;20094;-63
2023/06/01 09:41:01;;;;;;;1.77;0.85;;;25.10;77.30;;;;;;5012048;28;20500;-63
2023/06/01 09:43:27;;;;;;;4.55;1.40;;;25.20;76.30;;;;;;5005738;28;20388;-62
2023/06/01 09:46:14;;;;;;;2.60;1.10;;;25.30;75.70;;;;;;5008390;28;20481;-63
2023/06/01 09:48:43;;;;;;;3.90;1.23;;;25.40;74.00;;;;;;5016074;28;20489;-63
2023/06/01 09:51:29;;;;;;;5.85;1.27;;;25.40;74.80;;;;;;5001339;28;20038;-63
2023/06/01 09:53:55;;;;;;;1.92;0.70;;;25.50;75.20;;;;;;4991894;28;20820;-63
2023/06/01 09:56:20;;;;;;;3.38;1.20;;;25.50;75.00;;;;;;5018135;28;20128;-63
2023/06/01 09:58:47;;;;;;;3.28;1.05;;;25.60;75.00;;;;;;5013395;28;20033;-62
2023/06/01 10:01:15;;;;;;;4.00;1.40;;;25.70;74.50;;;;;;5020085;28;20045;-62
2023/06/01 10:03:42;;;;;;;2.55;1.02;;;25.60;74.40;;;;;;5030733;28;20037;-63
2023/06/01 10:06:12;;;;;;;2.85;0.95;;;25.70;74.50;;;;;;5003122;28;20034;-62
2023/06/01 10:08:38;;;;;;;3.53;1.27;;;25.60;72.10;;;;;;4991063;28;20049;-62
2023/06/01 10:11:04;;;;;;;4.82;1.35;;;25.70;70.80;;;;;;5004727;28;20038;-62
2023/06/01 10:13:31;;;;;;;1.85;0.88;;;25.80;69.90;;;;;;5011788;28;20307;-62
2023/06/01 10:15:57;;;;;;;3.85;1.67;;;25.90;70.30;;;;;;4997314;28;20049;-62
2023/06/01 10:18:22;;;;;;;4.65;1.17;;;25.90;70.40;;;;;;5009549;28;20025;-62
2023/06/01 10:20:49;;;;;;;3.97;1.52;;;25.90;72.50;;;;;;5022951;28;20397;-62
2023/06/01 10:23:15;;;;;;;2.75;1.55;;;26.00;70.70;;;;;;5010039;28;20029;-62
2023/06/01 10:25:47;;;;;;;3.38;1.13;;;26.30;71.20;;;;;;5023581;28;20120;-62
2023/06/01 10:28:14;;;;;;;2.03;0.82;;;26.50;70.40;;;;;;5010178;28;20068;-63
2023/06/01 10:30:40;;;;;;;4.65;1.15;;;26.40;69.90;;;;;;4990331;28;20041;-63
2023/06/01 10:33:06;;;;;;;2.95;0.90;;;26.60;69.10;;;;;;5026231;28;20029;-63
2023/06/01 10:35:41;;;;;;;3.00;1.20;;;26.70;68.30;;;;;;5023980;28;20026;-63
2023/06/01 10:38:07;;;;;;;1.75;0.73;;;26.80;68.60;;;;;;5026393;28;20029;-63
2023/06/01 10:40:37;;;;;;;1.58;0.90;;;26.90;67.10;;;;;;5025018;28;20561;-65
2023/06/01 10:43:03;;;;;;;1.33;1.00;;;26.90;67.40;;;;;;5026122;28;20026;-63
2023/06/01 10:45:42;;;;;;;1.40;0.90;;;27.10;67.40;;;;;;5007829;28;20484;-63
2023/06/01 10:48:12;;;;;;;2.42;0.82;;;27.30;66.20;;;;;;5026372;28;20140;-63
2023/06/01 10:50:42;;;;;;;3.25;1.00;;;26.90;65.60;;;;;;5023434;28;20060;-63
2023/06/01 10:53:37;;;;;;;3.70;1.15;;;27.20;65.10;;;;;;5008669;28;20443;-63
2023/06/01 10:56:24;;;;;;;5.20;0.85;;;27.50;65.10;;;;;;4992549;28;20125;-63
2023/06/01 10:59:08;;;;;;;1.73;1.08;;;27.50;65.30;;;;;;4989871;28;20034;-63
2023/06/01 11:01:35;;;;;;;4.35;1.40;;;27.40;65.70;;;;;;5021288;28;20037;-62
2023/06/01 11:04:01;;;;;;;2.42;1.02;;;27.50;64.40;;;;;;5012537;28;20030;-63
2023/06/01 11:06:43;;;;;;;2.22;0.80;;;27.50;64.90;;;;;;5002014;28;20172;-63
2023/06/01 11:09:10;;;;;;;4.05;0.90;;;27.60;64.50;;;;;;5010905;28;20026;-62
2023/06/01 11:11:51;;;;;;;2.42;0.90;;;27.80;63.30;;;;;;4993326;28;20026;-63
2023/06/01 11:14:23;;;;;;;11.27;2.05;;;27.80;62.60;;;;;;5010133;28;20481;-63
2023/06/01 11:16:50;;;;;;;4.38;1.00;;;27.70;63.50;;;;;;5021382;28;20116;-63
2023/06/01 11:19:27;;;;;;;2.55;0.60;;;28.10;63.40;;;;;;5027467;28;20119;-63
2023/06/01 11:22:01;;;;;;;1.48;0.90;;;28.30;62.10;;;;;;5024373;28;20112;-63
2023/06/01 11:24:33;;;;;;;2.63;0.98;;;28.80;61.60;;;;;;5014387;28;20022;-62
2023/06/01 11:27:06;;;;;;;4.60;1.20;;;28.80;61.90;;;;;;5008198;28;20036;-63
2023/06/01 11:29:32;;;;;;;2.33;0.98;;;28.80;60.80;;;;;;5031490;28;20160;-63
2023/06/01 11:32:01;;;;;;;4.10;1.63;;;28.70;61.30;;;;;;5024888;28;20037;-63
2023/06/01 11:34:44;;;;;;;10.48;1.52;;;29.00;60.60;;;;;;5013732;28;20503;-62
2023/06/01 11:37:19;;;;;;;7.15;1.10;;;29.20;59.50;;;;;;5008426;28;20037;-62
2023/06/01 11:39:46;;;;;;;2.88;0.73;;;28.70;60.80;;;;;;5028805;28;20265;-62
2023/06/01 11:42:21;;;;;;;1.50;0.70;;;29.10;59.80;;;;;;5007627;28;20037;-62
2023/06/01 11:44:58;;;;;;;1.55;0.68;;;29.30;59.30;;;;;;5031012;28;20485;-62
2023/06/01 11:47:29;;;;;;;69.65;7.40;;;29.30;61.00;;;;;;5013903;28;20045;-62
2023/06/01 11:49:57;;;;;;;2.47;1.33;;;29.50;60.00;;;;;;5013485;28;20116;-63
2023/06/01 11:52:30;;;;;;;1.42;0.70;;;29.20;58.90;;;;;;5025555;28;20091;-62
2023/06/01 11:55:23;;;;;;;2.30;1.20;;;28.80;59.60;;;;;;5024129;28;20037;-62
2023/06/01 11:58:09;;;;;;;2.03;1.02;;;28.90;59.60;;;;;;5003279;28;20045;-62
2023/06/01 12:00:40;;;;;;;1.67;1.10;;;28.60;62.50;;;;;;5027144;28;20548;-62
2023/06/01 12:03:45;;;;;;;3.05;1.00;;;29.20;59.20;;;;;;5028977;28;20116;-62
2023/06/01 12:06:28;;;;;;;2.30;0.90;;;29.60;58.10;;;;;;4969381;28;20076;-62
2023/06/01 12:09:01;;;;;;;3.67;1.02;;;29.10;58.50;;;;;;5008377;28;20021;-62
2023/06/01 12:11:28;;;;;;;4.65;0.77;;;29.20;59.10;;;;;;5005988;28;20049;-63
2023/06/01 12:17:44;;;;;;;5.35;1.60;;;29.80;58.20;;;;;;4957384;28;20109;-63
2023/06/01 12:26:36;;;;;;;3.72;0.93;;;30.60;58.20;;;;;;5014741;28;20086;-66
2023/06/01 12:29:02;;;;;;;1.38;0.80;;;30.80;57.40;;;;;;5008545;28;20041;-67
2023/06/01 12:31:29;;;;;;;2.05;0.80;;;31.20;57.40;;;;;;4995645;28;20035;-67
2023/06/01 12:33:55;;;;;;;5.72;1.70;;;31.30;56.20;;;;;;4990807;28;20031;-67
2023/06/01 12:36:32;;;;;;;1.38;0.90;;;30.40;57.00;;;;;;5006393;28;20026;-66
2023/06/01 12:38:59;;;;;;;2.38;1.20;;;30.20;55.60;;;;;;4975936;28;20055;-66
2023/06/01 12:41:26;;;;;;;3.50;1.88;;;30.20;55.20;;;;;;4982272;28;20031;-67
2023/06/01 12:43:53;;;;;;;1.52;1.20;;;30.30;55.30;;;;;;4975080;28;20030;-67
2023/06/01 12:46:25;;;;;;;3.42;1.80;;;30.70;55.40;;;;;;4988985;28;20034;-67
2023/06/01 12:48:53;;;;;;;1.30;0.65;;;30.40;54.60;;;;;;4979722;28;20041;-67
2023/06/01 12:51:21;;;;;;;2.10;0.75;;;30.50;54.50;;;;;;4999052;28;20186;-67
2023/06/01 12:53:47;;;;;;;3.47;1.02;;;30.70;56.40;;;;;;4992212;28;20034;-67
2023/06/01 12:56:14;;;;;;;2.50;0.80;;;30.60;56.10;;;;;;4995685;28;20033;-67
2023/06/01 12:58:40;;;;;;;3.10;0.77;;;31.20;56.30;;;;;;4977813;28;20025;-67
2023/06/01 13:01:06;;;;;;;2.25;0.93;;;31.50;53.40;;;;;;4970706;28;20030;-67
2023/06/01 13:03:33;;;;;;;1.60;1.00;;;31.40;52.90;;;;;;4993107;28;20222;-66
2023/06/01 13:06:00;;;;;;;1.70;0.82;;;30.90;54.10;;;;;;4987294;28;20045;-66
2023/06/01 13:08:26;;;;;;;1.17;0.68;;;31.20;53.60;;;;;;4978700;28;20037;-66